Time;durP1;ratioP1;P1;durP2;ratioP2;P2;SDS_P1;SDS_P2;PMS_P1;PMS_P2;Temp;Humidity;BMP_temperature;BMP_pressure;BME280_temperature;BME280_humidity;BME280_pressure;Samples;Min_cycle;Max_cycle;Signal;HPM_P1;HPM_P2
2023/12/29 00:02:16;;;;;;;5.60;3.05;;;;;;;6.84;100.00;97435.56;5056132;28;20480;-78
2023/12/29 00:04:42;;;;;;;3.47;3.10;;;;;;;6.84;100.00;97427.66;5052897;28;20440;-78
2023/12/29 00:07:09;;;;;;;5.13;3.30;;;;;;;6.84;100.00;97424.25;5058525;28;20402;-80
2023/12/29 00:09:40;;;;;;;5.40;3.25;;;;;;;6.86;100.00;97422.97;5054631;28;20397;-82
2023/12/29 00:12:07;;;;;;;5.33;3.50;;;;;;;6.88;100.00;97428.84;5058003;28;20932;-81
2023/12/29 00:14:36;;;;;;;3.53;2.90;;;;;;;6.90;100.00;97431.25;5067585;28;20494;-81
2023/12/29 00:17:03;;;;;;;3.37;3.00;;;;;;;6.90;100.00;97428.63;5072885;28;20392;-81
2023/12/29 00:19:29;;;;;;;5.15;3.53;;;;;;;6.89;100.00;97427.00;5073588;28;20506;-81
2023/12/29 00:21:55;;;;;;;6.22;3.80;;;;;;;6.90;100.00;97412.81;5074871;28;20400;-81
2023/12/29 00:24:22;;;;;;;4.72;3.40;;;;;;;6.86;100.00;97417.72;5073850;28;20400;-81
2023/12/29 00:26:48;;;;;;;4.22;3.45;;;;;;;6.82;100.00;97418.41;5074226;28;20415;-81
2023/12/29 00:29:15;;;;;;;3.78;3.15;;;;;;;6.77;100.00;97415.63;5066934;28;20405;-81
2023/12/29 00:31:42;;;;;;;4.47;3.40;;;;;;;6.71;100.00;97419.19;5054628;28;20947;-81
2023/12/29 00:34:08;;;;;;;4.15;3.30;;;;;;;6.60;100.00;97420.75;5054457;28;20397;-81
2023/12/29 00:36:35;;;;;;;3.85;3.33;;;;;;;6.53;100.00;97427.94;5055388;28;20385;-81
2023/12/29 00:39:01;;;;;;;3.03;2.72;;;;;;;6.49;100.00;97416.25;5068819;28;20833;-81
2023/12/29 00:41:27;;;;;;;3.27;2.87;;;;;;;6.46;100.00;97419.34;5073804;28;20768;-81
2023/12/29 00:43:53;;;;;;;3.53;3.00;;;;;;;6.48;100.00;97420.72;5073952;28;20892;-81
2023/12/29 00:46:19;;;;;;;3.90;3.20;;;;;;;6.55;100.00;97417.97;5063945;28;20456;-81
2023/12/29 00:48:47;;;;;;;3.80;3.08;;;;;;;6.58;100.00;97420.97;5053639;28;20401;-81
2023/12/29 00:51:13;;;;;;;3.80;3.05;;;;;;;6.64;100.00;97415.84;5053392;28;20409;-81
2023/12/29 00:53:39;;;;;;;4.82;3.17;;;;;;;6.69;100.00;97424.66;5053372;28;20397;-82
2023/12/29 00:56:10;;;;;;;4.40;3.17;;;;;;;6.71;100.00;97427.06;5056686;28;20390;-82
2023/12/29 00:58:37;;;;;;;5.03;3.87;;;;;;;6.71;100.00;97427.06;5057963;28;20748;-82
2023/12/29 01:01:03;;;;;;;4.95;3.45;;;;;;;6.76;100.00;97432.47;5062733;28;20461;-82
2023/12/29 01:03:29;;;;;;;6.40;3.80;;;;;;;6.78;100.00;97433.84;5059021;28;20410;-81
2023/12/29 01:05:56;;;;;;;4.18;3.58;;;;;;;6.82;100.00;97432.38;5069248;28;20478;-81
2023/12/29 01:08:23;;;;;;;3.60;3.30;;;;;;;6.83;100.00;97433.19;5075256;28;20485;-82
2023/12/29 01:10:49;;;;;;;5.32;3.55;;;;;;;6.86;100.00;97437.97;5077058;28;20467;-82
2023/12/29 01:13:15;;;;;;;4.95;3.65;;;;;;;6.86;100.00;97432.69;5075976;28;20881;-82
2023/12/29 01:15:44;;;;;;;5.40;3.78;;;;;;;6.88;100.00;97434.09;5076403;28;20422;-81
2023/12/29 01:18:10;;;;;;;5.70;3.75;;;;;;;6.93;100.00;97428.13;5075822;28;20498;-81
2023/12/29 01:20:39;;;;;;;5.40;3.60;;;;;;;6.95;100.00;97432.16;5072581;28;20574;-81
2023/12/29 01:23:06;;;;;;;4.50;3.75;;;;;;;6.97;100.00;97414.31;5072868;28;20388;-82
2023/12/29 01:25:32;;;;;;;6.22;3.88;;;;;;;6.98;100.00;97425.66;5067031;28;20400;-82
2023/12/29 01:27:58;;;;;;;5.82;3.97;;;;;;;7.03;100.00;97412.59;5052433;28;20451;-81
2023/12/29 01:30:24;;;;;;;5.97;3.80;;;;;;;7.05;100.00;97410.56;5053182;28;20397;-81
2023/12/29 01:32:51;;;;;;;5.32;4.05;;;;;;;7.08;100.00;97415.34;5053170;28;20455;-81
2023/12/29 01:35:17;;;;;;;5.10;4.05;;;;;;;7.10;100.00;97421.19;5054330;28;20394;-82
2023/12/29 01:37:43;;;;;;;6.82;4.10;;;;;;;7.13;100.00;97426.00;5057598;28;20417;-82
2023/12/29 01:40:11;;;;;;;5.57;3.60;;;;;;;7.16;100.00;97430.81;5056075;28;20421;-82
2023/12/29 01:42:38;;;;;;;5.00;3.97;;;;;;;7.20;100.00;97424.06;5058273;28;20479;-82
2023/12/29 01:45:05;;;;;;;6.50;3.90;;;;;;;7.20;100.00;97429.34;5061150;28;20412;-82
2023/12/29 01:47:32;;;;;;;4.38;3.80;;;;;;;7.23;100.00;97420.16;5086604;28;20432;-82
2023/12/29 01:49:58;;;;;;;9.75;4.13;;;;;;;7.23;100.00;97414.91;5086809;28;20740;-82
2023/12/29 01:52:25;;;;;;;5.43;4.13;;;;;;;7.31;100.00;97411.91;5084303;28;20407;-82
2023/12/29 01:54:52;;;;;;;7.70;5.00;;;;;;;7.33;100.00;97418.56;5066929;28;20403;-81
2023/12/29 01:57:20;;;;;;;7.03;4.30;;;;;;;7.40;100.00;97407.91;5073101;28;20391;-82
2023/12/29 01:59:48;;;;;;;4.40;3.75;;;;;;;7.43;100.00;97407.47;5074918;28;20438;-82
2023/12/29 02:02:15;;;;;;;6.15;4.00;;;;;;;7.41;100.00;97401.63;5073081;28;20402;-82
2023/12/29 02:04:42;;;;;;;6.05;3.95;;;;;;;7.45;100.00;97399.31;5073492;28;20422;-82
2023/12/29 02:07:08;;;;;;;4.43;3.72;;;;;;;7.46;100.00;97385.94;5073348;28;20462;-81
2023/12/29 02:09:35;;;;;;;5.97;3.70;;;;;;;7.44;100.00;97389.84;5073885;28;20898;-82
2023/12/29 02:12:02;;;;;;;9.10;4.10;;;;;;;7.42;100.00;97397.97;5057475;28;20819;-81
2023/12/29 02:14:30;;;;;;;9.48;4.10;;;;;;;7.42;100.00;97389.25;5066299;28;20408;-81
2023/12/29 02:17:06;;;;;;;5.38;4.07;;;;;;;7.46;100.00;97382.50;5072546;28;20431;-81
2023/12/29 02:19:38;;;;;;;4.13;3.28;;;;;;;7.48;100.00;97378.59;5070621;28;20426;-81
2023/12/29 02:22:05;;;;;;;5.53;3.65;;;;;;;7.46;100.00;97383.28;5072666;28;20796;-82
2023/12/29 02:24:33;;;;;;;7.10;4.68;;;;;;;7.46;100.00;97385.94;5072297;28;20487;-82
2023/12/29 02:27:16;;;;;;;7.15;4.15;;;;;;;7.47;100.00;97384.91;5072188;28;20411;-81
2023/12/29 02:29:49;;;;;;;5.40;4.10;;;;;;;7.50;100.00;97371.28;5071572;28;20391;-82
2023/12/29 02:32:18;;;;;;;4.07;3.20;;;;;;;7.54;100.00;97374.22;5072114;28;20399;-82
2023/12/29 02:34:47;;;;;;;6.30;4.10;;;;;;;7.52;100.00;97377.09;5071368;28;20823;-81
2023/12/29 02:37:14;;;;;;;5.18;4.15;;;;;;;7.53;100.00;97383.16;5071624;28;20388;-81
2023/12/29 02:39:41;;;;;;;9.27;4.60;;;;;;;7.52;100.00;97369.19;5073584;28;20519;-82
2023/12/29 02:42:08;;;;;;;5.18;3.88;;;;;;;7.55;100.00;97367.94;5072228;28;20890;-82
2023/12/29 02:44:34;;;;;;;4.75;3.80;;;;;;;7.57;100.00;97364.06;5062827;28;20478;-81
2023/12/29 02:47:03;;;;;;;6.38;4.30;;;;;;;7.55;100.00;97360.84;5057476;28;20431;-82
2023/12/29 02:49:29;;;;;;;4.50;3.73;;;;;;;7.57;100.00;97356.16;5055167;28;20849;-82
2023/12/29 02:51:56;;;;;;;5.22;4.25;;;;;;;7.57;100.00;97355.34;5055576;28;20850;-82
2023/12/29 02:54:22;;;;;;;6.07;4.18;;;;;;;7.55;100.00;97363.47;5055108;28;20427;-82
2023/12/29 02:56:48;;;;;;;5.30;3.85;;;;;;;7.57;100.00;97355.34;5055108;28;20743;-82
2023/12/29 02:59:15;;;;;;;5.68;4.07;;;;;;;7.54;100.00;97345.25;5056164;28;20634;-81
2023/12/29 03:01:42;;;;;;;4.97;3.85;;;;;;;7.57;100.00;97365.88;5075245;28;20476;-82
2023/12/29 03:04:08;;;;;;;8.52;4.63;;;;;;;7.52;100.00;97358.66;5075442;28;20398;-82
2023/12/29 03:06:34;;;;;;;9.13;4.68;;;;;;;7.52;100.00;97361.28;5075837;28;20395;-83
2023/12/29 03:09:00;;;;;;;7.78;4.28;;;;;;;7.50;100.00;97350.22;5075750;28;20396;-81
2023/12/29 03:11:26;;;;;;;6.32;4.60;;;;;;;7.50;100.00;97363.38;5059100;28;20428;-82
2023/12/29 03:13:52;;;;;;;6.82;4.00;;;;;;;7.51;100.00;97349.19;5055484;28;20459;-82
2023/12/29 03:16:20;;;;;;;7.55;4.28;;;;;;;7.48;100.00;97340.94;5055217;28;20495;-81
2023/12/29 03:18:47;;;;;;;7.72;4.50;;;;;;;7.45;100.00;97344.00;5055695;28;20402;-82
2023/12/29 03:21:13;;;;;;;6.17;3.97;;;;;;;7.45;100.00;97347.44;5060230;28;20832;-83
2023/12/29 03:23:39;;;;;;;4.85;4.00;;;;;;;7.45;100.00;97350.09;5063262;28;20424;-82
2023/12/29 03:26:06;;;;;;;6.03;4.00;;;;;;;7.44;100.00;97350.34;5071249;28;20454;-82
2023/12/29 03:28:32;;;;;;;8.07;4.30;;;;;;;7.38;100.00;97337.03;5074832;28;20449;-82
2023/12/29 03:30:58;;;;;;;5.90;4.43;;;;;;;7.34;100.00;97338.56;5074669;28;20396;-82
2023/12/29 03:33:25;;;;;;;6.55;4.47;;;;;;;7.26;100.00;97340.72;5074742;28;20434;-82
2023/12/29 03:35:52;;;;;;;5.20;3.95;;;;;;;7.20;100.00;97331.13;5075017;28;20391;-82
2023/12/29 03:38:18;;;;;;;4.73;3.97;;;;;;;7.10;100.00;97321.16;5074605;28;20387;-82
2023/12/29 03:40:44;;;;;;;5.75;3.80;;;;;;;7.03;100.00;97330.22;5074191;28;20412;-82
2023/12/29 03:43:10;;;;;;;5.15;3.80;;;;;;;6.93;100.00;97325.53;5074877;28;20449;-82
2023/12/29 03:45:36;;;;;;;4.90;3.83;;;;;;;6.88;100.00;97333.31;5064191;28;20901;-82
2023/12/29 03:48:03;;;;;;;4.90;4.10;;;;;;;6.82;100.00;97342.13;5054397;28;20957;-82
2023/12/29 03:50:30;;;;;;;5.88;3.75;;;;;;;6.77;100.00;97345.41;5053548;28;20440;-81
2023/12/29 03:52:57;;;;;;;5.15;4.00;;;;;;;6.76;100.00;97343.84;5054092;28;20932;-81
2023/12/29 03:55:23;;;;;;;4.80;4.03;;;;;;;6.76;100.00;97341.22;5054164;28;20489;-81
2023/12/29 03:57:49;;;;;;;4.47;3.58;;;;;;;6.76;100.00;97333.31;5054418;28;20431;-81
2023/12/29 04:00:15;;;;;;;5.63;4.22;;;;;;;6.76;100.00;97330.69;5053900;28;20417;-81
2023/12/29 04:02:41;;;;;;;4.90;3.97;;;;;;;6.76;100.00;97328.06;5062030;28;20799;-81
2023/12/29 04:05:10;;;;;;;5.65;4.07;;;;;;;6.75;100.00;97354.56;5074004;28;20795;-81
2023/12/29 04:07:40;;;;;;;4.47;3.83;;;;;;;6.76;100.00;97346.47;5073878;28;20387;-81
2023/12/29 04:10:08;;;;;;;8.17;4.30;;;;;;;6.77;100.00;97339.34;5071544;28;20521;-81
2023/12/29 04:12:34;;;;;;;4.82;4.05;;;;;;;6.82;100.00;97326.34;5074582;28;20402;-81
2023/12/29 04:15:00;;;;;;;6.10;4.07;;;;;;;6.82;100.00;97327.13;5064279;28;20440;-82
2023/12/29 04:17:26;;;;;;;4.72;3.90;;;;;;;6.85;100.00;97339.00;5065408;28;20458;-82
2023/12/29 04:19:53;;;;;;;5.47;4.07;;;;;;;6.89;100.00;97329.66;5063287;28;20421;-82
2023/12/29 04:22:19;;;;;;;5.93;4.03;;;;;;;6.91;100.00;97336.28;5058241;28;20740;-81
2023/12/29 04:24:46;;;;;;;4.18;3.70;;;;;;;6.91;100.00;97335.50;5053626;28;20398;-81
2023/12/29 04:27:13;;;;;;;6.57;3.95;;;;;;;6.88;100.00;97333.31;5053463;28;20421;-81
2023/12/29 04:29:39;;;;;;;4.63;3.83;;;;;;;6.90;100.00;97328.63;5053413;28;20406;-81
2023/12/29 04:32:06;;;;;;;6.13;4.13;;;;;;;6.89;100.00;97333.09;5053308;28;20746;-81
2023/12/29 04:34:32;;;;;;;4.70;3.80;;;;;;;6.89;100.00;97334.91;5053436;28;20394;-81
2023/12/29 04:36:58;;;;;;;4.63;3.70;;;;;;;6.85;100.00;97326.66;5053521;28;20474;-81
2023/12/29 04:39:24;;;;;;;4.05;3.65;;;;;;;6.78;100.00;97319.91;5057949;28;20498;-81
2023/12/29 04:41:52;;;;;;;4.90;4.00;;;;;;;6.70;100.00;97318.41;5073301;28;20559;-81
2023/12/29 04:44:18;;;;;;;4.32;3.65;;;;;;;6.65;100.00;97325.41;5073126;28;20399;-82
2023/12/29 04:46:44;;;;;;;3.85;3.25;;;;;;;6.61;100.00;97328.47;5053051;28;20405;-81
2023/12/29 04:49:10;;;;;;;4.32;3.75;;;;;;;6.62;100.00;97334.53;5052765;28;20409;-81
2023/12/29 04:51:37;;;;;;;5.18;3.97;;;;;;;6.67;100.00;97352.28;5052794;28;20512;-81
2023/12/29 04:54:03;;;;;;;6.68;4.07;;;;;;;6.69;100.00;97352.88;5053110;28;20763;-81
2023/12/29 04:56:29;;;;;;;6.55;3.78;;;;;;;6.74;100.00;97355.59;5053239;28;20403;-81
2023/12/29 04:58:56;;;;;;;6.40;4.35;;;;;;;6.74;100.00;97345.09;5052831;28;20397;-82
2023/12/29 05:01:23;;;;;;;5.07;3.90;;;;;;;6.76;100.00;97351.72;5052379;28;20470;-82
2023/12/29 05:03:49;;;;;;;5.97;4.18;;;;;;;6.74;100.00;97343.25;5039864;28;20445;-82
2023/12/29 05:06:15;;;;;;;6.88;4.40;;;;;;;6.77;100.00;97349.88;5049177;28;20405;-82
2023/12/29 05:08:41;;;;;;;7.15;4.15;;;;;;;6.78;100.00;97348.84;5053291;28;20409;-82
2023/12/29 05:11:07;;;;;;;6.22;4.63;;;;;;;6.80;100.00;97352.88;5053552;28;20393;-82
2023/12/29 05:13:33;;;;;;;4.57;3.58;;;;;;;6.84;100.00;97353.22;5052902;28;20458;-82
2023/12/29 05:16:03;;;;;;;7.15;4.45;;;;;;;6.86;100.00;97357.22;5053102;28;20400;-82
2023/12/29 05:18:29;;;;;;;5.37;3.90;;;;;;;6.94;100.00;97358.69;5053166;28;20434;-82
2023/12/29 05:20:55;;;;;;;4.85;3.53;;;;;;;6.95;100.00;97361.09;5057744;28;20412;-82
2023/12/29 05:23:22;;;;;;;3.97;3.15;;;;;;;6.96;100.00;97357.44;5053558;28;20467;-82
2023/12/29 05:25:48;;;;;;;5.05;3.80;;;;;;;6.94;100.00;97354.25;5054294;28;20401;-82
2023/12/29 05:28:14;;;;;;;4.97;3.88;;;;;;;6.94;100.00;97353.44;5054526;28;20481;-82
2023/12/29 05:30:40;;;;;;;4.97;3.63;;;;;;;6.93;100.00;97352.63;5065255;28;20408;-82
2023/12/29 05:33:07;;;;;;;3.75;3.35;;;;;;;6.92;100.00;97347.59;5073758;28;20453;-81
2023/12/29 05:35:34;;;;;;;3.80;3.40;;;;;;;6.89;100.00;97340.97;5072531;28;20449;-82
2023/12/29 05:38:00;;;;;;;3.65;3.35;;;;;;;6.87;100.00;97339.59;5072867;28;20445;-82
2023/12/29 05:40:26;;;;;;;4.80;3.70;;;;;;;6.84;100.00;97337.44;5076481;28;20892;-83
2023/12/29 05:42:52;;;;;;;6.22;4.28;;;;;;;6.82;100.00;97344.75;5077629;28;20426;-83
2023/12/29 05:45:18;;;;;;;6.07;4.57;;;;;;;6.79;100.00;97358.34;5068601;28;20389;-83
2023/12/29 05:47:44;;;;;;;5.15;4.15;;;;;;;6.79;100.00;97355.72;5062016;28;20785;-83
2023/12/29 05:50:12;;;;;;;4.50;3.92;;;;;;;6.78;100.00;97351.47;5058316;28;20429;-83
2023/12/29 05:52:38;;;;;;;5.00;3.85;;;;;;;6.76;100.00;97353.56;5052574;28;20394;-83
2023/12/29 05:55:05;;;;;;;6.15;4.40;;;;;;;6.75;100.00;97351.94;5052207;28;20755;-83
2023/12/29 05:57:31;;;;;;;5.00;4.07;;;;;;;6.72;100.00;97350.56;5051861;28;20551;-83
2023/12/29 05:59:57;;;;;;;5.20;4.00;;;;;;;6.71;100.00;97359.47;5051545;28;20492;-83
2023/12/29 06:02:23;;;;;;;5.90;3.80;;;;;;;6.70;100.00;97368.38;5070828;28;20885;-83
2023/12/29 06:04:50;;;;;;;8.55;4.80;;;;;;;6.70;100.00;97360.50;5053650;28;20433;-83
2023/12/29 06:07:17;;;;;;;5.07;4.03;;;;;;;6.71;100.00;97363.94;5067402;28;20398;-82
2023/12/29 06:09:43;;;;;;;5.50;3.97;;;;;;;6.71;100.00;97371.81;5057150;28;20413;-82
2023/12/29 06:12:10;;;;;;;4.88;4.13;;;;;;;6.71;100.00;97370.00;5051943;28;20404;-81
2023/12/29 06:14:37;;;;;;;4.30;3.90;;;;;;;6.73;100.00;97372.41;5051492;28;20393;-82
2023/12/29 06:17:03;;;;;;;5.72;4.72;;;;;;;6.73;100.00;97373.22;5054037;28;20448;-82
2023/12/29 06:19:32;;;;;;;4.82;3.67;;;;;;;6.74;100.00;97369.56;5058320;28;20417;-82
2023/12/29 06:21:58;;;;;;;4.28;3.88;;;;;;;6.75;100.00;97371.16;5051769;28;20792;-82
2023/12/29 06:24:25;;;;;;;5.35;4.07;;;;;;;6.75;100.00;97362.47;5051632;28;20889;-82
2023/12/29 06:26:51;;;;;;;6.72;4.72;;;;;;;6.73;100.00;97359.25;5052127;28;20432;-82
2023/12/29 06:29:18;;;;;;;7.00;5.10;;;;;;;6.70;100.00;97367.59;5052600;28;20428;-82
2023/12/29 06:31:44;;;;;;;4.90;4.28;;;;;;;6.66;100.00;97364.63;5072219;28;20427;-82
2023/12/29 06:34:10;;;;;;;4.60;3.58;;;;;;;6.63;100.00;97374.78;5072477;28;20470;-82
2023/12/29 06:36:36;;;;;;;6.05;4.35;;;;;;;6.62;100.00;97376.59;5071816;28;20427;-82
2023/12/29 06:39:02;;;;;;;6.45;4.40;;;;;;;6.65;100.00;97375.38;5071569;28;20460;-81
2023/12/29 06:41:30;;;;;;;6.65;4.47;;;;;;;6.67;100.00;97354.91;5071914;28;20413;-82
2023/12/29 06:43:56;;;;;;;6.20;4.63;;;;;;;6.68;100.00;97351.25;5071684;28;20418;-81
2023/12/29 06:46:22;;;;;;;4.77;4.03;;;;;;;6.69;100.00;97339.72;5071872;28;20961;-81
2023/12/29 06:48:49;;;;;;;4.30;3.70;;;;;;;6.68;100.00;97340.72;5074028;28;20383;-82
2023/12/29 06:51:18;;;;;;;4.57;3.70;;;;;;;6.63;100.00;97341.41;5074747;28;20400;-82
2023/12/29 06:53:46;;;;;;;4.85;4.32;;;;;;;6.61;100.00;97348.72;5077542;28;20395;-81
2023/12/29 06:56:14;;;;;;;7.05;4.30;;;;;;;6.60;100.00;97353.19;5075606;28;20431;-81
2023/12/29 06:58:42;;;;;;;6.77;4.80;;;;;;;6.63;100.00;97354.53;5072019;28;20506;-81
2023/12/29 07:01:08;;;;;;;6.95;4.45;;;;;;;6.68;100.00;97357.31;5071362;28;20419;-82
2023/12/29 07:03:34;;;;;;;7.18;5.22;;;;;;;6.71;100.00;97359.47;5071614;28;20858;-81
2023/12/29 07:06:01;;;;;;;6.38;4.80;;;;;;;6.77;100.00;97360.41;5071877;28;20431;-81
2023/12/29 07:08:27;;;;;;;6.32;4.07;;;;;;;6.80;100.00;97358.13;5069398;28;20782;-81
2023/12/29 07:10:54;;;;;;;5.10;4.13;;;;;;;6.82;100.00;97356.06;5052534;28;20404;-82
2023/12/29 07:13:20;;;;;;;6.63;4.13;;;;;;;6.85;100.00;97358.22;5052477;28;20867;-81
2023/12/29 07:15:48;;;;;;;7.72;4.85;;;;;;;6.86;100.00;97359.84;5051396;28;20413;-82
2023/12/29 07:18:14;;;;;;;6.55;4.75;;;;;;;6.88;100.00;97362.25;5062628;28;20395;-81
2023/12/29 07:20:40;;;;;;;5.70;4.03;;;;;;;6.90;100.00;97353.09;5071797;28;20860;-82
2023/12/29 07:23:06;;;;;;;6.50;4.30;;;;;;;6.92;100.00;97355.50;5072345;28;20404;-83
2023/12/29 07:25:32;;;;;;;6.63;4.20;;;;;;;6.91;100.00;97348.66;5075073;28;20430;-83
2023/12/29 07:27:59;;;;;;;5.57;4.18;;;;;;;6.91;100.00;97343.38;5058189;28;20393;-83
2023/12/29 07:30:25;;;;;;;6.07;4.10;;;;;;;6.89;100.00;97348.06;5059849;28;20397;-83
2023/12/29 07:32:53;;;;;;;5.22;4.28;;;;;;;6.88;100.00;97342.00;5056482;28;20458;-82
2023/12/29 07:35:19;;;;;;;5.40;4.23;;;;;;;6.88;100.00;97346.47;5055575;28;20389;-82
2023/12/29 07:37:46;;;;;;;5.25;4.65;;;;;;;6.91;100.00;97338.13;5053414;28;20796;-81
2023/12/29 07:40:13;;;;;;;7.50;4.70;;;;;;;6.91;100.00;97344.19;5054683;28;20423;-81
2023/12/29 07:42:40;;;;;;;5.57;4.40;;;;;;;6.93;100.00;97339.47;5060235;28;20463;-80
2023/12/29 07:45:08;;;;;;;5.82;4.63;;;;;;;6.96;100.00;97336.41;5070412;28;20474;-81
2023/12/29 07:47:35;;;;;;;5.57;4.45;;;;;;;6.98;100.00;97339.63;5065246;28;20401;-79
2023/12/29 07:50:02;;;;;;;5.22;4.07;;;;;;;7.00;100.00;97342.78;5058274;28;20461;-80
2023/12/29 07:52:30;;;;;;;6.43;4.47;;;;;;;7.04;100.00;97340.53;5057770;28;20901;-81
2023/12/29 07:54:56;;;;;;;5.40;3.78;;;;;;;7.07;100.00;97345.31;5061487;28;20469;-81
2023/12/29 07:57:23;;;;;;;7.72;4.70;;;;;;;7.08;100.00;97348.75;5061632;28;20407;-82
2023/12/29 07:59:49;;;;;;;4.60;3.92;;;;;;;7.11;100.00;97353.56;5061386;28;20460;-82
2023/12/29 08:02:16;;;;;;;4.45;3.80;;;;;;;7.13;100.00;97357.56;5056204;28;20402;-81
2023/12/29 08:04:42;;;;;;;8.43;4.40;;;;;;;7.16;100.00;97353.66;5064427;28;20399;-83
2023/12/29 08:07:10;;;;;;;5.70;4.28;;;;;;;7.15;100.00;97347.59;5069167;28;20401;-83
2023/12/29 08:09:36;;;;;;;5.88;4.38;;;;;;;7.19;100.00;97355.84;5058111;28;20513;-82
2023/12/29 08:12:02;;;;;;;8.30;4.70;;;;;;;7.19;100.00;97358.47;5059566;28;20404;-81
2023/12/29 08:14:28;;;;;;;7.63;4.45;;;;;;;7.19;100.00;97356.66;5057464;28;20425;-81
2023/12/29 08:16:56;;;;;;;6.78;4.22;;;;;;;7.20;100.00;97357.44;5058872;28;20408;-83
2023/12/29 08:19:22;;;;;;;6.80;4.32;;;;;;;7.20;100.00;97347.72;5061989;28;20444;-83
2023/12/29 08:21:49;;;;;;;5.83;4.43;;;;;;;7.23;100.00;97356.97;5065372;28;20392;-81
2023/12/29 08:24:16;;;;;;;6.10;4.32;;;;;;;7.25;100.00;97354.91;5068594;28;20400;-81
2023/12/29 08:26:46;;;;;;;4.25;3.60;;;;;;;7.28;100.00;97359.75;5063950;28;20919;-81
2023/12/29 08:29:12;;;;;;;5.10;4.22;;;;;;;7.28;100.00;97367.63;5061656;28;20424;-78
2023/12/29 08:31:38;;;;;;;6.38;4.60;;;;;;;7.31;100.00;97373.22;5061432;28;20469;-78
2023/12/29 08:34:04;;;;;;;6.93;3.97;;;;;;;7.32;100.00;97359.03;5058511;28;20421;-78
2023/12/29 08:36:30;;;;;;;5.60;3.88;;;;;;;7.35;100.00;97363.06;5058203;28;20396;-78
2023/12/29 08:38:56;;;;;;;5.88;4.32;;;;;;;7.36;100.00;97378.63;5060817;28;20407;-79
2023/12/29 08:41:24;;;;;;;5.10;3.65;;;;;;;7.41;100.00;97369.22;5060779;28;20401;-78
2023/12/29 08:43:50;;;;;;;5.22;3.63;;;;;;;7.43;100.00;97367.16;5063200;28;20479;-81
2023/12/29 08:46:16;;;;;;;5.73;4.10;;;;;;;7.45;100.00;97360.63;5062207;28;20407;-80
2023/12/29 08:48:42;;;;;;;4.25;3.53;;;;;;;7.48;100.00;97362.00;5062947;28;20445;-83
2023/12/29 08:51:09;;;;;;;4.17;3.30;;;;;;;7.51;100.00;97369.44;5057110;28;20440;-83
2023/12/29 08:53:35;;;;;;;5.25;3.70;;;;;;;7.53;100.00;97370.00;5075723;28;20775;-83
2023/12/29 08:56:02;;;;;;;7.53;3.53;;;;;;;7.51;100.00;97364.97;5074631;28;20396;-82
2023/12/29 08:58:30;;;;;;;5.07;3.40;;;;;;;7.51;100.00;97366.81;5074116;28;20415;-84
2023/12/29 09:00:56;;;;;;;3.72;3.20;;;;;;;7.50;100.00;97362.56;5057465;28;20488;-83
2023/12/29 09:03:22;;;;;;;3.20;2.90;;;;;;;7.50;100.00;97363.38;5059619;28;20436;-82
2023/12/29 09:05:48;;;;;;;5.18;3.60;;;;;;;7.49;100.00;97364.41;5067331;28;20446;-82
2023/12/29 09:08:15;;;;;;;4.47;3.60;;;;;;;7.50;100.00;97363.38;5067213;28;20417;-82
2023/12/29 09:10:41;;;;;;;3.40;3.03;;;;;;;7.52;100.00;97358.66;5076903;28;20400;-83
2023/12/29 09:13:09;;;;;;;6.65;4.10;;;;;;;7.52;100.00;97369.19;5075953;28;20496;-82
2023/12/29 09:15:37;;;;;;;6.75;4.07;;;;;;;7.53;100.00;97360.25;5073807;28;20910;-82
2023/12/29 09:18:03;;;;;;;4.50;4.10;;;;;;;7.56;100.00;97361.63;5069913;28;20435;-82
2023/12/29 09:20:30;;;;;;;5.75;3.55;;;;;;;7.61;100.00;97364.38;5068963;28;20419;-82
2023/12/29 09:22:57;;;;;;;4.82;3.83;;;;;;;7.69;100.00;97372.72;5075540;28;20426;-83
2023/12/29 09:25:24;;;;;;;3.50;3.20;;;;;;;7.82;100.00;97374.28;5066594;28;20398;-82
2023/12/29 09:27:53;;;;;;;3.70;3.00;;;;;;;8.01;100.00;97377.56;5051281;28;20923;-82
2023/12/29 09:30:19;;;;;;;4.93;3.47;;;;;;;8.11;100.00;97378.56;5051261;28;20409;-82
2023/12/29 09:32:47;;;;;;;5.93;3.13;;;;;;;8.26;100.00;97375.41;5055654;28;20405;-82
2023/12/29 09:35:13;;;;;;;3.83;3.10;;;;;;;8.27;100.00;97376.22;5056854;28;20402;-83
2023/12/29 09:37:39;;;;;;;4.43;3.00;;;;;;;8.26;100.00;97391.22;5050689;28;20485;-84
2023/12/29 09:40:06;;;;;;;3.47;2.75;;;;;;;8.21;100.00;97383.22;5052948;28;20423;-86
2023/12/29 09:42:35;;;;;;;4.60;2.70;;;;;;;8.26;100.00;97382.53;5043296;28;20484;-85
2023/12/29 09:45:05;;;;;;;3.47;2.80;;;;;;;8.25;100.00;97394.91;5044604;28;20410;-82
2023/12/29 09:47:34;;;;;;;3.63;2.95;;;;;;;8.19;100.00;97385.31;5073877;28;20400;-82
2023/12/29 09:50:03;;;;;;;3.25;2.90;;;;;;;8.20;100.00;97380.81;5073662;28;20392;-81
2023/12/29 09:52:30;;;;;;;3.40;2.50;;;;;;;8.22;100.00;97389.28;5058405;28;20868;-82
2023/12/29 09:54:57;;;;;;;2.95;2.65;;;;;;;8.19;100.00;97390.56;5073148;28;20471;-81
2023/12/29 09:57:24;;;;;;;3.05;2.65;;;;;;;8.19;100.00;97390.56;5067239;28;20399;-81
2023/12/29 09:59:51;;;;;;;3.37;2.73;;;;;;;8.28;100.00;97397.06;5058383;28;20411;-81
2023/12/29 10:02:17;;;;;;;3.55;2.95;;;;;;;8.44;100.00;97387.59;5060310;28;20765;-82
2023/12/29 10:04:44;;;;;;;2.33;2.13;;;;;;;8.61;100.00;97390.28;5072649;28;20844;-82
2023/12/29 10:07:18;;;;;;;3.08;2.50;;;;;;;8.74;100.00;97389.97;5061364;28;20401;-81
2023/12/29 10:09:47;;;;;;;2.95;2.50;;;;;;;8.92;100.00;97382.63;5039636;28;20971;-81
2023/12/29 10:12:14;;;;;;;3.33;2.30;;;;;;;9.13;100.00;97382.94;5037543;28;20844;-82
2023/12/29 10:14:48;;;;;;;4.07;2.78;;;;;;;9.37;100.00;97376.44;5038400;28;20395;-82
2023/12/29 10:17:27;;;;;;;5.03;2.60;;;;;;;9.61;100.00;97375.19;5052346;28;20726;-82
2023/12/29 10:20:03;;;;;;;3.03;2.22;;;;;;;9.99;100.00;97376.97;5054666;28;20427;-83
2023/12/29 10:22:39;;;;;;;4.18;2.20;;;;;;;10.29;100.00;97376.53;5054810;28;20391;-83
2023/12/29 10:25:06;;;;;;;3.63;2.17;;;;;;;10.16;100.00;97357.53;5047903;28;20421;-82
2023/12/29 10:27:33;;;;;;;3.88;2.20;;;;;;;10.31;100.00;97342.66;5035475;28;20399;-81
2023/12/29 10:29:59;;;;;;;3.35;2.20;;;;;;;10.82;100.00;97354.50;5032569;28;20426;-83
2023/12/29 10:32:28;;;;;;;2.70;2.00;;;;;;;11.38;100.00;97340.81;5034344;28;20716;-82
2023/12/29 10:35:09;;;;;;;2.33;1.80;;;;;;;11.91;100.00;97332.59;5033224;28;20399;-82
2023/12/29 10:37:37;;;;;;;3.73;1.70;;;;;;;12.08;100.00;97328.94;5033949;28;20434;-83
2023/12/29 10:40:07;;;;;;;1.77;1.50;;;;;;;12.32;100.00;97317.59;5033573;28;20431;-82
2023/12/29 10:42:33;;;;;;;1.80;1.47;;;;;;;12.82;100.00;97318.66;5034349;28;20399;-82
2023/12/29 10:45:07;;;;;;;1.42;1.25;;;;;;;13.41;100.00;97308.22;5034686;28;20418;-82
2023/12/29 10:47:35;;;;;;;1.95;1.33;;;;;;;13.92;100.00;97308.00;5035262;28;20914;-83
2023/12/29 10:50:05;;;;;;;1.35;1.25;;;;;;;14.44;100.00;97296.81;5040114;28;20541;-83
2023/12/29 10:52:33;;;;;;;1.20;1.10;;;;;;;14.83;100.00;97288.78;5038676;28;20413;-82
2023/12/29 10:55:09;;;;;;;2.27;1.20;;;;;;;15.08;100.00;97285.88;5040451;28;20435;-83
2023/12/29 10:57:35;;;;;;;1.52;1.20;;;;;;;15.22;100.00;97288.66;5038871;28;20442;-81
2023/12/29 11:00:03;;;;;;;1.20;1.10;;;;;;;15.28;100.00;97284.06;5035983;28;20423;-81
2023/12/29 11:02:29;;;;;;;1.60;1.33;;;;;;;15.36;100.00;97278.91;5040036;28;20417;-81
2023/12/29 11:05:03;;;;;;;1.63;1.15;;;;;;;15.34;100.00;97285.59;5041506;28;20403;-83
2023/12/29 11:07:34;;;;;;;1.15;1.05;;;;;;;15.19;100.00;97277.75;5035997;28;20403;-81
2023/12/29 11:10:02;;;;;;;2.00;1.30;;;;;;;15.13;100.00;97270.88;5038670;28;20461;-82
2023/12/29 11:12:32;;;;;;;1.50;1.30;;;;;;;15.21;100.00;97267.59;5039601;28;20395;-84
2023/12/29 11:14:58;;;;;;;1.75;1.45;;;;;;;15.13;100.00;97270.88;5041341;28;20399;-84
2023/12/29 11:17:25;;;;;;;1.42;1.33;;;;;;;14.67;100.00;97260.66;5041521;28;20413;-81
2023/12/29 11:19:53;;;;;;;1.30;1.20;;;;;;;14.40;100.00;97273.69;5038860;28;20919;-82
2023/12/29 11:22:21;;;;;;;1.47;1.20;;;;;;;14.29;100.00;97259.59;5038739;28;20399;-81
2023/12/29 11:24:48;;;;;;;1.75;1.40;;;;;;;14.26;100.00;97268.97;5038256;28;20422;-84
2023/12/29 11:27:14;;;;;;;1.63;1.30;;;;;;;14.23;100.00;97268.72;5042424;28;20408;-81
2023/12/29 11:29:42;;;;;;;1.50;1.30;;;;;;;14.25;100.00;97254.06;5041402;28;20900;-81
2023/12/29 11:32:15;;;;;;;2.03;1.20;;;;;;;14.27;100.00;97264.44;5038515;28;20403;-81